Navios Pollux — 3FPO2 — position and weather

sailwx.info

Track history (hours):
 
Tides and Currents Weather Stations Pressure Air Temp Water Temp Dewpoint Dewpoint Depression Visibility Wind Speed Wind Dir Waves Ship Positions

Navios Pollux

Last reported at 2014-Jul-19 23:11 UTC. Time now 2014-Jul-28 04:16 UTC.
Position N 35°60' E 120°16'.
Warning: this ship's position is 8 days out of date.

Length 292 m; draft 7 m.

Type: Cargo ship. MMSI: 370290000.

Date/timePositionNaut miles runAvg speedWind from/ knotsBaromVisibWave heightAir tempDewpointWater temp
2014-Jul-19 23:11N 35°60' E 120°16'0 0.0
2014-Jul-19 22:23N 35°60' E 120°16'0 0.0
2014-Jul-19 21:29N 35°60' E 120°16'0 0.0
2014-Jul-19 20:23N 35°60' E 120°16'0 0.0
2014-Jul-19 19:23N 35°60' E 120°16'0 0.0
2014-Jul-19 15:32N 35°60' E 120°16'0 0.0
2014-Jul-19 13:32N 35°60' E 120°16'0 0.0
2014-Jul-19 12:32N 35°60' E 120°16'0 0.0
2014-Jul-19 11:32N 35°60' E 120°16'0 0.0
2014-Jul-19 10:17N 35°60' E 120°16'0 0.0
2014-Jul-19 09:23N 35°60' E 120°16'0 0.0
2014-Jul-19 07:29N 35°60' E 120°16'0 0.0
2014-Jul-19 06:23N 35°60' E 120°16'0 0.0
2014-Jul-19 05:29N 35°60' E 120°16'0 0.0
2014-Jul-19 04:32N 35°60' E 120°16'0 0.0
2014-Jul-19 03:32N 35°60' E 120°16'0 0.0
2014-Jul-19 02:32N 35°60' E 120°16'0 0.0
2014-Jul-18 22:32N 35°60' E 120°16'0 0.0
2014-Jul-18 21:05N 35°60' E 120°16'0 0.0
2014-Jul-18 20:23N 35°60' E 120°16'0 0.0
2014-Jul-18 19:29N 35°60' E 120°16'0 0.0
2014-Jul-18 18:29N 35°60' E 120°16'0 0.0
2014-Jul-18 16:29N 35°60' E 120°16'0 0.0
2014-Jul-18 10:24N 35°60' E 120°16'0 0.0
2014-Jul-18 09:23N 35°60' E 120°16'0 0.0
2014-Jul-18 07:17N 35°60' E 120°16'0 0.0
2014-Jul-18 06:17N 35°60' E 120°16'0 0.0
2014-Jul-18 05:05N 35°60' E 120°16'0 0.0
2014-Jul-18 04:29N 35°60' E 120°16'0 0.0
2014-Jul-18 03:23N 35°60' E 120°16'0 0.0
2014-Jul-18 00:17N 35°60' E 120°16'0 0.0
2014-Jul-17 19:29N 35°60' E 120°16'0 0.0
2014-Jul-17 14:05N 35°60' E 120°16'0 0.0
2014-Jul-17 12:17N 35°60' E 120°16'0 0.0
2014-Jul-17 09:29N 35°60' E 120°16'0 0.0
2014-Jul-17 08:23N 35°60' E 120°16'0 0.0
2014-Jul-17 07:23N 35°60' E 120°16'0 0.0
2014-Jul-17 05:29N 35°60' E 120°16'0 0.0
2014-Jul-17 04:23N 35°60' E 120°16'0 0.0
2014-Jul-17 00:11N 35°60' E 120°16'0 0.0
2014-Jul-16 22:11N 35°60' E 120°16'0 0.0
2014-Jul-16 21:29N 35°60' E 120°16'0 0.0
2014-Jul-16 18:17N 35°60' E 120°16'0 0.0
2014-Jul-16 16:29N 35°60' E 120°16'0 0.0
2014-Jul-16 14:23N 35°60' E 120°16'0 0.0
2014-Jul-16 12:17N 35°60' E 120°16'0 0.0
2014-Jul-16 10:17N 35°60' E 120°16'0 0.0
2014-Jul-16 09:23N 35°60' E 120°16'0 0.0
2014-Jul-16 08:29N 35°60' E 120°16'0 0.0
2014-Jul-16 07:05N 35°60' E 120°16'0 0.0
2014-Jul-16 06:24N 35°60' E 120°16'0 0.0
2014-Jul-16 03:29N 35°60' E 120°16'0 0.0
2014-Jul-16 02:23N 35°60' E 120°16'0 0.0
2014-Jul-16 01:23N 35°60' E 120°16'0 0.0
2014-Jul-15 18:12N 35°60' E 120°16'0 0.0
2014-Jul-15 17:30N 35°60' E 120°16'0 0.0
2014-Jul-15 15:18N 35°60' E 120°16'0 0.0
2014-Jul-15 12:20N 35°60' E 120°16'0 0.0
2014-Jul-15 09:31N 35°60' E 120°16'0 0.0
2014-Jul-15 08:13N 35°60' E 120°16'0 0.0
2014-Jul-15 03:19N 35°60' E 120°16'3 3.4
2014-Jul-15 02:32N 36°02' E 120°18'1111.2
2014-Jul-15 01:33N 35°60' E 120°31'1413.1
2014-Jul-15 00:30N 35°56' E 120°48'8 1.8
2014-Jul-14 20:17N 35°50' E 120°53'0 0.1
2014-Jul-14 16:08N 35°50' E 120°53'3 0.4
2014-Jul-14 08:12N 35°51' E 120°50'5 8.4
2014-Jul-14 07:33N 35°56' E 120°52'1110.7
2014-Jul-14 06:33N 35°56' E 121°05'1010.1
2014-Jul-14 05:33N 36°01' E 121°16'10 9.7
2014-Jul-14 04:33N 36°05' E 121°27'10 9.5
2014-Jul-14 03:33N 36°09' E 121°38'23 9.5
2014-Jul-14 01:09N 36°16' E 122°05'610.6
2014-Jul-14 00:33N 36°18' E 122°12'1110.6
2014-Jul-13 23:33N 36°24' E 122°22'10 9.6
2014-Jul-13 22:33N 36°29' E 122°33'10 9.8
2014-Jul-13 21:33N 36°33' E 122°44'8 8.3
2014-Jul-13 20:33N 36°41' E 122°47'1010.3
2014-Jul-13 19:33N 36°52' E 122°47'1111.2
2014-Jul-13 18:33N 37°03' E 122°47'1212.3
2014-Jul-13 17:33N 37°15' E 122°47'1313.1
2014-Jul-13 16:33N 37°28' E 122°44'1312.8
2014-Jul-13 15:33N 37°37' E 122°32'1211.8
2014-Jul-13 14:33N 37°44' E 122°20'1211.2
2014-Jul-13 13:31N 37°51' E 122°09'3311.0
2014-Jul-13 10:33N 38°11' E 121°36'1111.4
2014-Jul-13 09:33N 38°18' E 121°24'1111.3
2014-Jul-13 08:33N 38°24' E 121°12'1010.2
2014-Jul-13 07:33N 38°29' E 121°01'9 9.4
2014-Jul-13 06:34N 38°33' E 120°50'9 8.7
2014-Jul-13 05:33N 38°35' E 120°39'8 8.3
2014-Jul-13 04:33N 38°36' E 120°29'9 8.7
2014-Jul-13 03:33N 38°37' E 120°18'7711.0
2014-Jul-12 20:33N 38°48' E 118°40'1511.2
2014-Jul-12 19:13N 38°50' E 118°21'16 9.2
2014-Jul-12 17:29N 38°56' E 118°02'1112.1
2014-Jul-12 16:34N 38°58' E 117°48'0 0.2
2014-Jul-12 15:28N 38°58' E 117°48'0 0.0
2014-Jul-12 14:29N 38°58' E 117°48'0 0.0
2014-Jul-12 13:28N 38°58' E 117°48'0 0.0
2014-Jul-12 12:28N 38°58' E 117°48'0 0.0
2014-Jul-12 11:28N 38°58' E 117°48'0 0.0
2014-Jul-12 10:28N 38°58' E 117°48'0 0.0
2014-Jul-12 09:28N 38°58' E 117°48'0 0.0
2014-Jul-12 08:28N 38°58' E 117°48'0 0.0
2014-Jul-12 07:28N 38°58' E 117°48'0 0.0
2014-Jul-12 06:28N 38°58' E 117°48'0 0.0
2014-Jul-12 05:28N 38°58' E 117°48'0 0.0
2014-Jul-12 04:28N 38°58' E 117°48'0 0.0
2014-Jul-12 03:28N 38°58' E 117°48'0 0.0
2014-Jul-12 02:28N 38°58' E 117°48'0 0.0
2014-Jul-12 01:28N 38°58' E 117°48'0 0.0
2014-Jul-12 00:28N 38°58' E 117°48'0 0.0
2014-Jul-11 23:28N 38°58' E 117°48'0 0.0
2014-Jul-11 22:22N 38°58' E 117°48'0 0.0
2014-Jul-11 21:28N 38°58' E 117°48'0 0.0
2014-Jul-11 20:28N 38°58' E 117°48'0 0.0
2014-Jul-11 19:28N 38°58' E 117°48'0 0.0
2014-Jul-11 18:16N 38°58' E 117°48'0 0.0
2014-Jul-11 17:28N 38°58' E 117°48'0 0.0
2014-Jul-11 16:22N 38°58' E 117°48'0 0.0
2014-Jul-11 15:22N 38°58' E 117°48'0 0.0
2014-Jul-11 14:28N 38°58' E 117°48'0 0.0
2014-Jul-11 13:28N 38°58' E 117°48'0 0.0
2014-Jul-11 12:28N 38°58' E 117°48'0 0.0
2014-Jul-11 11:28N 38°58' E 117°48'0 0.0
2014-Jul-11 10:28N 38°58' E 117°48'0 0.0
2014-Jul-11 09:28N 38°58' E 117°48'0 0.0
2014-Jul-11 08:28N 38°58' E 117°48'0 0.2
2014-Jul-11 07:33N 38°58' E 117°48'7 6.7
2014-Jul-11 06:33N 38°57' E 117°56'9 9.5
2014-Jul-11 05:33N 38°55' E 118°08'6 0.4
2014-Jul-10 16:16N 38°50' E 118°12'0 0.0
2014-Jul-10 12:22N 38°50' E 118°12'  
Track history (hours):
 
Tides and Currents Weather Stations Pressure Air Temp Water Temp Dewpoint Dewpoint Depression Visibility Wind Speed Wind Dir Waves Ship Positions

Navios Pollux

Last reported at 2014-Jul-19 23:11 UTC. Time now 2014-Jul-28 04:16 UTC.
Position N 35°60' E 120°16'.
Warning: this ship's position is 8 days out of date.

Length 292 m; draft 7 m.

Type: Cargo ship. MMSI: 370290000.

Date/timePositionNaut miles runAvg speedWind from/ knotsBaromVisibWave heightAir tempDewpointWater temp
2014-Jul-19 23:11N 35°60' E 120°16'0 0.0
2014-Jul-19 22:23N 35°60' E 120°16'0 0.0
2014-Jul-19 21:29N 35°60' E 120°16'0 0.0
2014-Jul-19 20:23N 35°60' E 120°16'0 0.0
2014-Jul-19 19:23N 35°60' E 120°16'0 0.0
2014-Jul-19 15:32N 35°60' E 120°16'0 0.0
2014-Jul-19 13:32N 35°60' E 120°16'0 0.0
2014-Jul-19 12:32N 35°60' E 120°16'0 0.0
2014-Jul-19 11:32N 35°60' E 120°16'0 0.0
2014-Jul-19 10:17N 35°60' E 120°16'0 0.0
2014-Jul-19 09:23N 35°60' E 120°16'0 0.0
2014-Jul-19 07:29N 35°60' E 120°16'0 0.0
2014-Jul-19 06:23N 35°60' E 120°16'0 0.0
2014-Jul-19 05:29N 35°60' E 120°16'0 0.0
2014-Jul-19 04:32N 35°60' E 120°16'0 0.0
2014-Jul-19 03:32N 35°60' E 120°16'0 0.0
2014-Jul-19 02:32N 35°60' E 120°16'0 0.0
2014-Jul-18 22:32N 35°60' E 120°16'0 0.0
2014-Jul-18 21:05N 35°60' E 120°16'0 0.0
2014-Jul-18 20:23N 35°60' E 120°16'0 0.0
2014-Jul-18 19:29N 35°60' E 120°16'0 0.0
2014-Jul-18 18:29N 35°60' E 120°16'0 0.0
2014-Jul-18 16:29N 35°60' E 120°16'0 0.0
2014-Jul-18 10:24N 35°60' E 120°16'0 0.0
2014-Jul-18 09:23N 35°60' E 120°16'0 0.0
2014-Jul-18 07:17N 35°60' E 120°16'0 0.0
2014-Jul-18 06:17N 35°60' E 120°16'0 0.0
2014-Jul-18 05:05N 35°60' E 120°16'0 0.0
2014-Jul-18 04:29N 35°60' E 120°16'0 0.0
2014-Jul-18 03:23N 35°60' E 120°16'0 0.0
2014-Jul-18 00:17N 35°60' E 120°16'0 0.0
2014-Jul-17 19:29N 35°60' E 120°16'0 0.0
2014-Jul-17 14:05N 35°60' E 120°16'0 0.0
2014-Jul-17 12:17N 35°60' E 120°16'0 0.0
2014-Jul-17 09:29N 35°60' E 120°16'0 0.0
2014-Jul-17 08:23N 35°60' E 120°16'0 0.0
2014-Jul-17 07:23N 35°60' E 120°16'0 0.0
2014-Jul-17 05:29N 35°60' E 120°16'0 0.0
2014-Jul-17 04:23N 35°60' E 120°16'0 0.0
2014-Jul-17 00:11N 35°60' E 120°16'0 0.0
2014-Jul-16 22:11N 35°60' E 120°16'0 0.0
2014-Jul-16 21:29N 35°60' E 120°16'0 0.0
2014-Jul-16 18:17N 35°60' E 120°16'0 0.0
2014-Jul-16 16:29N 35°60' E 120°16'0 0.0
2014-Jul-16 14:23N 35°60' E 120°16'0 0.0
2014-Jul-16 12:17N 35°60' E 120°16'0 0.0
2014-Jul-16 10:17N 35°60' E 120°16'0 0.0
2014-Jul-16 09:23N 35°60' E 120°16'0 0.0
2014-Jul-16 08:29N 35°60' E 120°16'0 0.0
2014-Jul-16 07:05N 35°60' E 120°16'0 0.0
2014-Jul-16 06:24N 35°60' E 120°16'0 0.0
2014-Jul-16 03:29N 35°60' E 120°16'0 0.0
2014-Jul-16 02:23N 35°60' E 120°16'0 0.0
2014-Jul-16 01:23N 35°60' E 120°16'0 0.0
2014-Jul-15 18:12N 35°60' E 120°16'0 0.0
2014-Jul-15 17:30N 35°60' E 120°16'0 0.0
2014-Jul-15 15:18N 35°60' E 120°16'0 0.0
2014-Jul-15 12:20N 35°60' E 120°16'0 0.0
2014-Jul-15 09:31N 35°60' E 120°16'0 0.0
2014-Jul-15 08:13N 35°60' E 120°16'0 0.0
2014-Jul-15 03:19N 35°60' E 120°16'3 3.4
2014-Jul-15 02:32N 36°02' E 120°18'1111.2
2014-Jul-15 01:33N 35°60' E 120°31'1413.1
2014-Jul-15 00:30N 35°56' E 120°48'8 1.8
2014-Jul-14 20:17N 35°50' E 120°53'0 0.1
2014-Jul-14 16:08N 35°50' E 120°53'3 0.4
2014-Jul-14 08:12N 35°51' E 120°50'5 8.4
2014-Jul-14 07:33N 35°56' E 120°52'1110.7
2014-Jul-14 06:33N 35°56' E 121°05'1010.1
2014-Jul-14 05:33N 36°01' E 121°16'10 9.7
2014-Jul-14 04:33N 36°05' E 121°27'10 9.5
2014-Jul-14 03:33N 36°09' E 121°38'23 9.5
2014-Jul-14 01:09N 36°16' E 122°05'610.6
2014-Jul-14 00:33N 36°18' E 122°12'1110.6
2014-Jul-13 23:33N 36°24' E 122°22'10 9.6
2014-Jul-13 22:33N 36°29' E 122°33'10 9.8
2014-Jul-13 21:33N 36°33' E 122°44'8 8.3
2014-Jul-13 20:33N 36°41' E 122°47'1010.3
2014-Jul-13 19:33N 36°52' E 122°47'1111.2
2014-Jul-13 18:33N 37°03' E 122°47'1212.3
2014-Jul-13 17:33N 37°15' E 122°47'1313.1
2014-Jul-13 16:33N 37°28' E 122°44'1312.8
2014-Jul-13 15:33N 37°37' E 122°32'1211.8
2014-Jul-13 14:33N 37°44' E 122°20'1211.2
2014-Jul-13 13:31N 37°51' E 122°09'3311.0
2014-Jul-13 10:33N 38°11' E 121°36'1111.4
2014-Jul-13 09:33N 38°18' E 121°24'1111.3
2014-Jul-13 08:33N 38°24' E 121°12'1010.2
2014-Jul-13 07:33N 38°29' E 121°01'9 9.4
2014-Jul-13 06:34N 38°33' E 120°50'9 8.7
2014-Jul-13 05:33N 38°35' E 120°39'8 8.3
2014-Jul-13 04:33N 38°36' E 120°29'9 8.7
2014-Jul-13 03:33N 38°37' E 120°18'7711.0
2014-Jul-12 20:33N 38°48' E 118°40'1511.2
2014-Jul-12 19:13N 38°50' E 118°21'16 9.2
2014-Jul-12 17:29N 38°56' E 118°02'1112.1
2014-Jul-12 16:34N 38°58' E 117°48'0 0.2
2014-Jul-12 15:28N 38°58' E 117°48'0 0.0
2014-Jul-12 14:29N 38°58' E 117°48'0 0.0
2014-Jul-12 13:28N 38°58' E 117°48'0 0.0
2014-Jul-12 12:28N 38°58' E 117°48'0 0.0
2014-Jul-12 11:28N 38°58' E 117°48'0 0.0
2014-Jul-12 10:28N 38°58' E 117°48'0 0.0
2014-Jul-12 09:28N 38°58' E 117°48'0 0.0
2014-Jul-12 08:28N 38°58' E 117°48'0 0.0
2014-Jul-12 07:28N 38°58' E 117°48'0 0.0
2014-Jul-12 06:28N 38°58' E 117°48'0 0.0
2014-Jul-12 05:28N 38°58' E 117°48'0 0.0
2014-Jul-12 04:28N 38°58' E 117°48'0 0.0
2014-Jul-12 03:28N 38°58' E 117°48'0 0.0
2014-Jul-12 02:28N 38°58' E 117°48'0 0.0
2014-Jul-12 01:28N 38°58' E 117°48'0 0.0
2014-Jul-12 00:28N 38°58' E 117°48'0 0.0
2014-Jul-11 23:28N 38°58' E 117°48'0 0.0
2014-Jul-11 22:22N 38°58' E 117°48'0 0.0
2014-Jul-11 21:28N 38°58' E 117°48'0 0.0
2014-Jul-11 20:28N 38°58' E 117°48'0 0.0
2014-Jul-11 19:28N 38°58' E 117°48'0 0.0
2014-Jul-11 18:16N 38°58' E 117°48'0 0.0
2014-Jul-11 17:28N 38°58' E 117°48'0 0.0
2014-Jul-11 16:22N 38°58' E 117°48'0 0.0
2014-Jul-11 15:22N 38°58' E 117°48'0 0.0
2014-Jul-11 14:28N 38°58' E 117°48'0 0.0
2014-Jul-11 13:28N 38°58' E 117°48'0 0.0
2014-Jul-11 12:28N 38°58' E 117°48'0 0.0
2014-Jul-11 11:28N 38°58' E 117°48'0 0.0
2014-Jul-11 10:28N 38°58' E 117°48'0 0.0
2014-Jul-11 09:28N 38°58' E 117°48'0 0.0
2014-Jul-11 08:28N 38°58' E 117°48'0 0.2
2014-Jul-11 07:33N 38°58' E 117°48'7 6.7
2014-Jul-11 06:33N 38°57' E 117°56'9 9.5
2014-Jul-11 05:33N 38°55' E 118°08'6 0.4
2014-Jul-10 16:16N 38°50' E 118°12'0 0.0
2014-Jul-10 12:22N 38°50' E 118°12'  

Dump ship's entire track history